createdAt,value
2023-12-19T00:01:47.231Z,88.00
2023-12-19T00:03:49.016Z,124.70
2023-12-19T00:05:50.757Z,99.32
2023-12-19T00:07:52.418Z,61.83
2023-12-19T00:09:54.110Z,58.00
2023-12-19T00:11:55.708Z,81.43
2023-12-19T00:13:57.789Z,123.80
2023-12-19T00:15:59.730Z,64.35
2023-12-19T00:18:01.543Z,47.33
2023-12-19T00:20:03.735Z,85.93
2023-12-19T00:22:12.940Z,49.17
2023-12-19T00:24:15.886Z,45.40
2023-12-19T00:26:17.517Z,99.47
2023-12-19T00:28:19.123Z,109.00
2023-12-19T00:30:20.805Z,102.75
2023-12-19T00:32:22.496Z,84.57
2023-12-19T00:34:27.230Z,87.80
2023-12-19T00:36:30.104Z,76.20
2023-12-19T00:38:31.729Z,69.90
2023-12-19T00:40:33.422Z,55.20
2023-12-19T00:42:35.049Z,46.58
2023-12-19T00:44:37.700Z,81.47
2023-12-19T00:46:39.521Z,88.93
2023-12-19T00:48:41.428Z,92.90
2023-12-19T00:50:43.185Z,50.85
2023-12-19T00:52:45.299Z,49.10
2023-12-19T00:54:47.215Z,45.28
2023-12-19T00:56:49.185Z,45.53
2023-12-19T00:58:50.781Z,151.10
2023-12-19T01:00:52.477Z,164.43
2023-12-19T01:02:54.093Z,165.77
2023-12-19T01:04:58.872Z,137.00
2023-12-19T01:07:00.669Z,100.10
2023-12-19T01:09:02.331Z,82.38
2023-12-19T01:11:04.005Z,60.78
2023-12-19T01:13:05.650Z,42.05
2023-12-19T01:15:07.960Z,41.50
2023-12-19T01:17:09.535Z,39.53
2023-12-19T01:19:11.700Z,51.45
2023-12-19T01:21:13.584Z,49.13
2023-12-19T01:23:16.617Z,54.08
2023-12-19T01:25:18.212Z,63.67
2023-12-19T01:27:19.854Z,64.50
2023-12-19T01:29:21.896Z,61.38
2023-12-19T01:31:23.469Z,43.05
2023-12-19T01:33:25.301Z,49.85
2023-12-19T01:35:26.969Z,50.33
2023-12-19T01:37:28.599Z,39.80
2023-12-19T01:39:30.220Z,41.72
2023-12-19T01:41:32.017Z,37.67
2023-12-19T01:43:33.655Z,46.38
2023-12-19T01:45:35.351Z,46.75
2023-12-19T01:47:44.979Z,46.00
2023-12-19T01:51:49.946Z,57.85
2023-12-19T01:53:52.600Z,61.50
2023-12-19T01:55:55.275Z,54.53
2023-12-19T01:57:57.668Z,42.15
2023-12-19T01:59:59.561Z,39.88
2023-12-19T02:02:01.168Z,46.40
2023-12-19T02:04:02.878Z,44.42
2023-12-19T02:06:06.160Z,40.33
2023-12-19T02:08:07.844Z,62.08
2023-12-19T02:10:09.791Z,52.58
2023-12-19T02:12:11.922Z,54.90
2023-12-19T02:14:13.534Z,58.42
2023-12-19T02:16:15.353Z,49.08
2023-12-19T02:18:18.723Z,81.00
2023-12-19T02:20:20.820Z,70.57
2023-12-19T02:22:22.726Z,54.67
2023-12-19T02:24:25.470Z,54.40
2023-12-19T02:26:28.510Z,46.80
2023-12-19T02:28:30.114Z,55.08
2023-12-19T02:30:31.942Z,42.40
2023-12-19T02:32:35.074Z,50.15
2023-12-19T02:34:36.842Z,48.10
2023-12-19T02:36:38.757Z,32.55
2023-12-19T02:38:40.350Z,91.80
2023-12-19T02:40:42.171Z,87.07
2023-12-19T02:42:44.646Z,39.78
2023-12-19T02:44:46.431Z,29.88
2023-12-19T02:46:48.021Z,24.85
2023-12-19T02:48:49.722Z,27.35
2023-12-19T02:50:51.404Z,38.72
2023-12-19T02:52:53.004Z,25.65
2023-12-19T02:54:54.712Z,27.05
2023-12-19T02:56:56.305Z,28.45
2023-12-19T02:58:57.873Z,27.17
2023-12-19T03:00:59.450Z,23.58
2023-12-19T03:03:01.091Z,23.08
2023-12-19T03:05:02.938Z,23.35
2023-12-19T03:07:04.655Z,26.05
2023-12-19T03:09:06.267Z,30.60
2023-12-19T03:11:07.886Z,26.38
2023-12-19T03:13:09.557Z,25.90
2023-12-19T03:15:11.492Z,24.30
2023-12-19T03:17:13.562Z,24.33
2023-12-19T03:19:15.253Z,29.55
2023-12-19T03:21:16.892Z,23.02
2023-12-19T03:23:19.439Z,19.50
2023-12-19T03:25:21.018Z,22.45
2023-12-19T03:27:22.756Z,21.88
2023-12-19T03:29:24.406Z,17.25
2023-12-19T03:31:26.166Z,19.80
2023-12-19T03:33:27.865Z,22.17
2023-12-19T03:35:29.883Z,20.45
2023-12-19T03:37:33.015Z,18.50
2023-12-19T03:39:34.653Z,17.52
2023-12-19T03:41:36.230Z,16.17
2023-12-19T03:43:37.995Z,15.48
2023-12-19T03:45:39.732Z,17.48
2023-12-19T03:47:41.721Z,18.73
2023-12-19T03:49:43.495Z,17.90
2023-12-19T03:51:45.433Z,13.60
2023-12-19T03:53:47.018Z,16.25
2023-12-19T03:55:48.789Z,14.23
2023-12-19T03:57:50.350Z,14.68
2023-12-19T03:59:52.007Z,16.83
2023-12-19T04:01:53.648Z,13.82
2023-12-19T04:03:55.301Z,17.33
2023-12-19T04:05:56.985Z,16.98
2023-12-19T04:07:58.774Z,15.80
2023-12-19T04:10:00.632Z,14.85
2023-12-19T04:12:03.619Z,20.30
2023-12-19T04:14:07.108Z,16.33
2023-12-19T04:16:09.074Z,24.30
2023-12-19T04:18:12.254Z,23.98
2023-12-19T04:20:13.914Z,17.25
2023-12-19T04:22:15.685Z,18.75
2023-12-19T04:24:18.325Z,21.45
2023-12-19T04:26:20.738Z,19.73
2023-12-19T04:28:22.367Z,19.10
2023-12-19T04:30:24.075Z,39.08
2023-12-19T04:32:25.784Z,48.10
2023-12-19T04:34:27.753Z,31.20
2023-12-19T04:36:31.497Z,30.58
2023-12-19T04:38:33.131Z,20.25
2023-12-19T04:40:34.851Z,16.67
2023-12-19T04:42:36.666Z,13.32
2023-12-19T04:44:38.377Z,15.52
2023-12-19T04:46:43.190Z,14.70
2023-12-19T04:48:45.062Z,11.82
2023-12-19T04:50:46.698Z,18.02
2023-12-19T04:52:48.301Z,15.27
2023-12-19T04:54:50.069Z,14.50
2023-12-19T04:56:51.855Z,15.27
2023-12-19T04:58:53.474Z,15.15
2023-12-19T05:00:55.206Z,15.13
2023-12-19T05:02:58.117Z,13.32
2023-12-19T05:04:59.902Z,13.25
2023-12-19T05:07:01.536Z,13.68
2023-12-19T05:09:03.841Z,11.85
2023-12-19T05:11:06.208Z,12.00
2023-12-19T05:13:08.264Z,11.27
2023-12-19T05:15:10.227Z,10.75
2023-12-19T05:17:12.041Z,11.30
2023-12-19T05:19:13.724Z,11.68
2023-12-19T05:21:15.481Z,10.80
2023-12-19T05:23:17.044Z,10.55
2023-12-19T05:25:18.726Z,11.95
2023-12-19T05:27:20.444Z,9.65
2023-12-19T05:29:22.016Z,14.90
2023-12-19T05:31:23.753Z,14.32
2023-12-19T05:33:26.111Z,10.55
2023-12-19T05:35:27.665Z,8.50
2023-12-19T05:37:29.226Z,12.35
2023-12-19T05:39:32.322Z,10.05
2023-12-19T05:41:34.670Z,10.93
2023-12-19T05:43:36.254Z,10.95
2023-12-19T05:45:37.885Z,11.15
2023-12-19T05:47:39.561Z,10.48
2023-12-19T05:49:41.277Z,13.02
2023-12-19T05:51:42.967Z,9.50
2023-12-19T05:53:44.716Z,8.93
2023-12-19T05:55:46.414Z,11.00
2023-12-19T05:57:48.505Z,10.25
2023-12-19T05:59:50.312Z,9.77
2023-12-19T06:01:52.218Z,10.95
2023-12-19T06:03:55.492Z,12.55
2023-12-19T06:05:57.252Z,10.68
2023-12-19T06:08:02.117Z,11.10
2023-12-19T06:10:09.745Z,11.00
2023-12-19T06:12:12.730Z,12.82
2023-12-19T06:14:14.435Z,12.63
2023-12-19T06:16:16.164Z,19.23
2023-12-19T06:18:18.518Z,14.43
2023-12-19T06:20:20.412Z,13.90
2023-12-19T06:22:22.061Z,12.82
2023-12-19T06:24:23.701Z,11.05
2023-12-19T06:26:25.310Z,12.75
2023-12-19T06:28:26.914Z,12.20
2023-12-19T06:30:32.198Z,11.23
2023-12-19T06:32:37.789Z,9.85
2023-12-19T06:34:39.623Z,14.82
2023-12-19T06:36:42.684Z,14.45
2023-12-19T06:38:44.306Z,15.02
2023-12-19T06:40:46.604Z,13.50
2023-12-19T06:42:49.722Z,60.65
2023-12-19T06:44:51.749Z,17.95
2023-12-19T06:46:53.406Z,24.58
2023-12-19T06:48:55.175Z,19.92
2023-12-19T06:50:56.821Z,42.65
2023-12-19T06:52:58.458Z,18.00
2023-12-19T06:55:00.425Z,13.30
2023-12-19T06:57:02.069Z,12.13
2023-12-19T06:59:05.271Z,14.77
2023-12-19T07:01:07.598Z,11.48
2023-12-19T07:03:09.292Z,11.50
2023-12-19T07:05:10.978Z,16.75
2023-12-19T07:07:12.553Z,21.10
2023-12-19T07:09:15.913Z,20.65
2023-12-19T07:11:17.953Z,43.50
2023-12-19T07:13:19.543Z,136.05
2023-12-19T07:15:21.109Z,106.25
2023-12-19T07:17:23.600Z,41.67
2023-12-19T07:19:25.352Z,64.03
2023-12-19T07:21:27.154Z,116.90
2023-12-19T07:23:28.921Z,106.88
2023-12-19T07:25:30.848Z,84.82
2023-12-19T07:27:36.004Z,79.63
2023-12-19T07:29:39.694Z,36.40
2023-12-19T07:31:41.508Z,35.50
2023-12-19T07:33:43.322Z,20.10
2023-12-19T07:35:45.081Z,30.77
2023-12-19T07:37:47.249Z,33.22
2023-12-19T07:39:48.958Z,33.33
2023-12-19T07:41:50.593Z,36.55
2023-12-19T07:43:52.221Z,38.47
2023-12-19T07:45:53.828Z,46.90
2023-12-19T07:47:55.904Z,37.40
2023-12-19T07:49:57.741Z,33.63
2023-12-19T07:51:59.354Z,26.30
2023-12-19T07:54:00.990Z,17.60
2023-12-19T07:56:04.719Z,20.10
2023-12-19T07:58:07.995Z,11.20
2023-12-19T08:00:12.489Z,18.80
2023-12-19T08:02:14.076Z,10.80
2023-12-19T08:04:16.162Z,14.75
2023-12-19T08:06:18.139Z,14.10
2023-12-19T08:08:19.784Z,13.95
2023-12-19T08:10:21.406Z,13.00
2023-12-19T08:12:23.001Z,13.65
2023-12-19T08:14:24.657Z,17.13
2023-12-19T08:16:26.217Z,13.80
2023-12-19T08:18:27.886Z,12.23
2023-12-19T08:20:29.564Z,11.68
2023-12-19T08:22:31.623Z,15.30
2023-12-19T08:24:33.437Z,12.15
2023-12-19T08:26:35.063Z,13.00
2023-12-19T08:28:36.637Z,13.50
2023-12-19T08:30:40.568Z,13.60
2023-12-19T08:32:42.912Z,13.18
2023-12-19T08:34:44.986Z,10.52
2023-12-19T08:36:46.701Z,14.82
2023-12-19T08:38:48.334Z,11.75
2023-12-19T08:40:52.340Z,16.95
2023-12-19T08:42:57.341Z,10.52
2023-12-19T08:44:59.262Z,18.73
2023-12-19T08:47:00.910Z,11.65
2023-12-19T08:49:03.818Z,11.95
2023-12-19T08:51:05.854Z,13.25
2023-12-19T08:53:07.409Z,13.60
2023-12-19T08:55:09.835Z,16.23
2023-12-19T08:57:11.407Z,10.43
2023-12-19T08:59:13.129Z,12.60
2023-12-19T09:01:15.095Z,13.52
2023-12-19T09:03:16.874Z,10.75
2023-12-19T09:05:20.332Z,11.93
2023-12-19T09:07:22.020Z,10.70
2023-12-19T09:09:23.695Z,10.88
2023-12-19T09:11:25.328Z,11.02
2023-12-19T09:13:27.031Z,10.60
2023-12-19T09:15:28.694Z,11.35
2023-12-19T09:17:31.091Z,13.13
2023-12-19T09:19:36.165Z,9.68
2023-12-19T09:21:37.959Z,11.98
2023-12-19T09:23:42.162Z,11.07
2023-12-19T09:25:43.993Z,10.68
2023-12-19T09:27:46.947Z,12.05
2023-12-19T09:29:48.627Z,10.25
2023-12-19T09:31:50.309Z,13.18
2023-12-19T09:33:52.111Z,14.50
2023-12-19T09:35:53.778Z,12.75
2023-12-19T09:37:56.586Z,15.60
2023-12-19T09:39:58.604Z,23.17
2023-12-19T09:42:00.708Z,11.77
2023-12-19T09:44:02.299Z,9.38
2023-12-19T09:46:04.431Z,10.05
2023-12-19T09:48:07.206Z,13.13
2023-12-19T09:50:13.998Z,27.52
2023-12-19T09:52:17.153Z,17.17
2023-12-19T09:54:23.045Z,27.10
2023-12-19T09:56:25.313Z,25.98
2023-12-19T09:58:27.024Z,17.02
2023-12-19T10:00:33.820Z,12.88
2023-12-19T10:02:35.803Z,12.40
2023-12-19T10:04:37.440Z,9.07
2023-12-19T10:06:49.184Z,22.40
2023-12-19T10:08:53.974Z,50.63
2023-12-19T10:10:57.483Z,12.27
2023-12-19T10:12:59.108Z,10.30
2023-12-19T10:15:18.694Z,9.73
2023-12-19T10:17:23.686Z,13.48
2023-12-19T10:19:29.498Z,9.95
2023-12-19T10:21:33.441Z,7.82
2023-12-19T10:23:36.121Z,9.80
2023-12-19T10:25:45.438Z,10.57
2023-12-19T10:27:48.333Z,9.55
2023-12-19T10:29:50.650Z,13.18
2023-12-19T10:31:52.294Z,234.75
2023-12-19T10:33:57.880Z,61.13
2023-12-19T10:35:59.900Z,98.85
2023-12-19T10:38:01.538Z,15.50
2023-12-19T10:40:15.797Z,9.77
2023-12-19T10:42:20.109Z,10.48
2023-12-19T10:44:21.822Z,11.02
2023-12-19T10:46:32.150Z,8.05
2023-12-19T10:48:34.094Z,6.53
2023-12-19T10:50:36.593Z,9.98
2023-12-19T10:52:41.232Z,11.18
2023-12-19T10:54:45.839Z,8.77
2023-12-19T10:57:08.104Z,8.35
2023-12-19T10:59:18.149Z,9.73
2023-12-19T11:01:23.435Z,6.93
2023-12-19T11:03:32.916Z,7.85
2023-12-19T11:05:46.769Z,8.75
2023-12-19T11:07:53.046Z,13.57
2023-12-19T11:10:06.200Z,7.32
2023-12-19T11:12:08.932Z,10.55
2023-12-19T11:14:10.677Z,12.77
2023-12-19T11:16:17.189Z,16.30
2023-12-19T11:18:36.104Z,12.07
2023-12-19T11:20:47.110Z,14.23
2023-12-19T11:23:09.809Z,13.40
2023-12-19T11:25:35.376Z,7.65
2023-12-19T11:27:44.948Z,19.67
2023-12-19T11:29:56.956Z,8.25
2023-12-19T11:31:58.623Z,10.00
2023-12-19T11:34:04.960Z,9.40
2023-12-19T11:36:14.116Z,12.68
2023-12-19T11:38:26.120Z,16.88
2023-12-19T11:40:49.091Z,15.93
2023-12-19T11:42:50.933Z,12.35
2023-12-19T11:44:52.747Z,11.98
2023-12-19T11:47:20.108Z,13.88
2023-12-19T11:49:38.623Z,9.40
2023-12-19T11:51:43.506Z,12.00
2023-12-19T11:53:45.206Z,11.40
2023-12-19T11:55:47.923Z,12.45
2023-12-19T11:57:56.953Z,23.90
2023-12-19T12:00:03.622Z,15.60
2023-12-19T12:02:05.521Z,16.50
2023-12-19T12:04:08.301Z,18.23
2023-12-19T12:06:10.339Z,15.80
2023-12-19T12:08:15.149Z,24.65
2023-12-19T12:10:17.886Z,25.98
2023-12-19T12:12:37.159Z,30.55
2023-12-19T12:14:38.763Z,30.92
2023-12-19T12:16:41.622Z,42.63
2023-12-19T12:18:44.253Z,29.25
2023-12-19T12:20:45.960Z,36.70
2023-12-19T12:22:47.578Z,48.97
2023-12-19T12:24:54.562Z,20.85
2023-12-19T12:27:10.378Z,19.10
2023-12-19T12:29:11.956Z,38.05
2023-12-19T12:31:14.565Z,24.73
2023-12-19T12:33:16.893Z,21.58
2023-12-19T12:35:36.102Z,38.67
2023-12-19T12:37:37.663Z,27.63
2023-12-19T12:39:39.321Z,22.27
2023-12-19T12:41:42.924Z,19.08
2023-12-19T12:43:51.548Z,27.75
2023-12-19T12:46:15.619Z,25.02
2023-12-19T12:48:17.292Z,13.48
2023-12-19T12:50:22.210Z,24.55
2023-12-19T12:52:23.944Z,16.33
2023-12-19T12:54:26.312Z,16.73
2023-12-19T12:56:35.969Z,14.85
2023-12-19T12:58:37.900Z,14.85
2023-12-19T13:00:41.658Z,16.95
2023-12-19T13:02:43.562Z,13.88
2023-12-19T13:04:45.142Z,24.50
2023-12-19T13:06:47.207Z,18.92
2023-12-19T13:08:48.976Z,24.02
2023-12-19T13:10:50.996Z,18.38
2023-12-19T13:12:52.602Z,18.48
2023-12-19T13:14:54.206Z,16.63
2023-12-19T13:16:55.776Z,22.10
2023-12-19T13:18:57.871Z,23.30
2023-12-19T13:20:59.533Z,14.30
2023-12-19T13:23:02.170Z,13.18
2023-12-19T13:25:10.938Z,16.77
2023-12-19T13:27:16.278Z,17.40
2023-12-19T13:29:17.936Z,14.25
2023-12-19T13:31:21.231Z,15.50
2023-12-19T13:33:23.160Z,9.85
2023-12-19T13:35:24.726Z,12.10
2023-12-19T13:37:26.392Z,18.13
2023-12-19T13:39:28.007Z,18.88
2023-12-19T13:41:29.642Z,24.23
2023-12-19T13:43:31.278Z,35.95
2023-12-19T13:45:35.150Z,26.50
2023-12-19T13:47:38.176Z,36.60
2023-12-19T13:49:40.063Z,40.75
2023-12-19T13:51:41.751Z,31.98
2023-12-19T13:53:43.388Z,31.48
2023-12-19T13:55:44.979Z,37.22
2023-12-19T13:57:46.730Z,36.28
2023-12-19T13:59:48.529Z,43.08
2023-12-19T14:01:50.274Z,40.97
2023-12-19T14:03:52.365Z,32.60
2023-12-19T14:05:54.156Z,41.42
2023-12-19T14:08:00.828Z,33.33
2023-12-19T14:10:02.950Z,22.27
2023-12-19T14:12:04.854Z,24.25
2023-12-19T14:14:07.282Z,24.20
2023-12-19T14:16:11.353Z,27.48
2023-12-19T14:18:13.359Z,27.00
2023-12-19T14:20:16.429Z,34.92
2023-12-19T14:22:18.576Z,162.00
2023-12-19T14:24:20.190Z,149.13
2023-12-19T14:26:21.917Z,87.97
2023-12-19T14:28:23.677Z,75.57
2023-12-19T14:30:25.474Z,78.07
2023-12-19T14:32:27.236Z,45.22
2023-12-19T14:34:29.002Z,36.15
2023-12-19T14:36:30.796Z,56.65
2023-12-19T14:38:32.362Z,122.00
2023-12-19T14:40:33.912Z,79.93
2023-12-19T14:42:36.123Z,66.88
2023-12-19T14:44:40.375Z,59.53
2023-12-19T14:46:43.611Z,50.38
2023-12-19T14:48:47.483Z,35.38
2023-12-19T14:50:49.419Z,103.80
2023-12-19T14:52:51.410Z,55.17
2023-12-19T14:54:53.852Z,26.05
2023-12-19T14:56:56.404Z,25.90
2023-12-19T14:58:58.491Z,36.05
2023-12-19T15:01:00.164Z,28.85
2023-12-19T15:03:01.836Z,115.45
2023-12-19T15:05:04.885Z,45.33
2023-12-19T15:07:06.707Z,56.58
2023-12-19T15:09:09.055Z,22.15
2023-12-19T15:11:10.732Z,30.40
2023-12-19T15:13:12.399Z,176.55
2023-12-19T15:15:13.995Z,50.30
2023-12-19T15:17:15.727Z,62.80
2023-12-19T15:19:17.541Z,73.88
2023-12-19T15:21:19.361Z,68.70
2023-12-19T15:23:22.432Z,68.90
2023-12-19T15:25:24.659Z,44.13
2023-12-19T15:27:26.473Z,49.88
2023-12-19T15:29:28.726Z,113.45
2023-12-19T15:31:30.731Z,105.72
2023-12-19T15:33:32.417Z,73.80
2023-12-19T15:35:34.023Z,72.03
2023-12-19T15:37:35.760Z,57.80
2023-12-19T15:39:37.476Z,52.35
2023-12-19T15:41:39.127Z,36.90
2023-12-19T15:43:41.980Z,33.17
2023-12-19T15:45:44.524Z,35.42
2023-12-19T15:47:46.079Z,31.38
2023-12-19T15:49:48.140Z,36.30
2023-12-19T15:51:50.292Z,30.45
2023-12-19T15:53:52.045Z,34.22
2023-12-19T15:55:54.798Z,28.75
2023-12-19T15:57:56.562Z,33.45
2023-12-19T15:59:58.213Z,25.95
2023-12-19T16:01:59.824Z,46.63
2023-12-19T16:04:01.780Z,40.10
2023-12-19T16:06:03.803Z,35.45
2023-12-19T16:08:08.800Z,62.15
2023-12-19T16:10:11.257Z,71.32
2023-12-19T16:12:13.230Z,108.18
2023-12-19T16:14:15.565Z,122.07
2023-12-19T16:16:17.240Z,121.80
2023-12-19T16:18:18.955Z,193.73
2023-12-19T16:20:21.504Z,157.07
2023-12-19T16:22:23.731Z,108.40
2023-12-19T16:24:25.493Z,254.43
2023-12-19T16:26:27.061Z,154.57
2023-12-19T16:28:28.720Z,521.30
2023-12-19T16:30:30.400Z,314.45
2023-12-19T16:32:32.036Z,236.90
2023-12-19T16:34:33.846Z,127.78
2023-12-19T16:36:35.828Z,137.95
2023-12-19T16:38:40.462Z,175.77
2023-12-19T16:40:49.686Z,176.57
2023-12-19T16:42:51.445Z,63.60
2023-12-19T16:44:53.020Z,196.75
2023-12-19T16:46:54.718Z,211.15
2023-12-19T16:48:56.788Z,81.10
2023-12-19T16:50:58.743Z,96.57
2023-12-19T16:53:00.736Z,51.97
2023-12-19T16:55:02.489Z,83.10
2023-12-19T16:57:04.486Z,83.47
2023-12-19T16:59:06.136Z,85.50
2023-12-19T17:01:08.239Z,162.63
2023-12-19T17:03:09.851Z,130.52
2023-12-19T17:05:11.651Z,86.35
2023-12-19T17:07:13.394Z,205.10
2023-12-19T17:09:15.181Z,59.50
2023-12-19T17:11:16.765Z,121.32
2023-12-19T17:13:18.471Z,92.78
2023-12-19T17:15:20.612Z,108.63
2023-12-19T17:17:22.317Z,65.10
2023-12-19T17:19:24.100Z,63.95
2023-12-19T17:21:25.805Z,56.05
2023-12-19T17:23:35.971Z,41.25
2023-12-19T17:25:41.935Z,59.75
2023-12-19T17:27:43.514Z,42.67
2023-12-19T17:29:45.586Z,24.05
2023-12-19T17:31:47.258Z,28.05
2023-12-19T17:33:48.888Z,23.13
2023-12-19T17:35:50.601Z,19.73
2023-12-19T17:37:52.584Z,21.42
2023-12-19T17:39:54.253Z,21.75
2023-12-19T17:44:02.006Z,19.08
2023-12-19T17:46:03.792Z,15.60
2023-12-19T17:48:05.973Z,22.65
2023-12-19T17:50:08.179Z,23.98
2023-12-19T17:52:10.651Z,24.85
2023-12-19T17:54:12.434Z,14.55
2023-12-19T17:56:14.103Z,18.75
2023-12-19T17:58:15.818Z,18.08
2023-12-19T18:00:17.707Z,21.55
2023-12-19T18:02:19.275Z,21.58
2023-12-19T18:04:20.816Z,53.80
2023-12-19T18:06:22.426Z,71.07
2023-12-19T18:08:28.243Z,65.03
2023-12-19T18:10:29.896Z,53.00
2023-12-19T18:12:32.842Z,58.75
2023-12-19T18:14:34.538Z,93.53
2023-12-19T18:16:36.140Z,81.18
2023-12-19T18:18:37.843Z,52.33
2023-12-19T18:20:39.484Z,54.63
2023-12-19T18:22:41.139Z,79.30
2023-12-19T18:24:42.774Z,42.97
2023-12-19T18:26:44.399Z,69.47
2023-12-19T18:28:46.185Z,45.28
2023-12-19T18:30:48.017Z,31.70
2023-12-19T18:32:49.765Z,31.92
2023-12-19T18:34:51.752Z,25.92
2023-12-19T18:36:53.709Z,32.50
2023-12-19T18:38:55.922Z,61.58
2023-12-19T18:40:57.687Z,30.77
2023-12-19T18:43:01.258Z,20.30
2023-12-19T18:45:02.907Z,30.65
2023-12-19T18:47:04.908Z,16.05
2023-12-19T18:49:06.534Z,42.75
2023-12-19T18:51:08.149Z,40.05
2023-12-19T18:53:10.394Z,29.63
2023-12-19T18:55:12.839Z,39.45
2023-12-19T18:57:15.686Z,42.88
2023-12-19T18:59:20.524Z,22.58
2023-12-19T19:01:23.838Z,41.05
2023-12-19T19:03:25.782Z,28.88
2023-12-19T19:05:27.452Z,34.47
2023-12-19T19:07:29.542Z,26.38
2023-12-19T19:09:32.353Z,29.70
2023-12-19T19:11:33.979Z,22.40
2023-12-19T19:13:35.772Z,22.52
2023-12-19T19:15:37.415Z,25.23
2023-12-19T19:17:39.085Z,24.88
2023-12-19T19:19:42.733Z,31.27
2023-12-19T19:21:45.006Z,34.13
2023-12-19T19:23:47.782Z,33.42
2023-12-19T19:25:49.574Z,31.95
2023-12-19T19:27:51.378Z,25.85
2023-12-19T19:29:54.305Z,18.35
2023-12-19T19:31:56.006Z,22.42
2023-12-19T19:33:57.697Z,21.00
2023-12-19T19:35:59.867Z,22.10
2023-12-19T19:38:03.293Z,18.00
2023-12-19T19:40:06.121Z,12.07
2023-12-19T19:42:08.316Z,18.35
2023-12-19T19:44:10.023Z,12.48
2023-12-19T19:46:12.054Z,14.27
2023-12-19T19:48:14.079Z,12.45
2023-12-19T19:50:15.802Z,18.15
2023-12-19T19:52:17.500Z,13.68
2023-12-19T19:54:20.796Z,13.77
2023-12-19T19:56:22.433Z,24.05
2023-12-19T19:58:24.090Z,26.35
2023-12-19T20:00:25.748Z,17.77
2023-12-19T20:02:27.371Z,14.55
2023-12-19T20:04:29.083Z,16.75
2023-12-19T20:06:31.635Z,21.08
2023-12-19T20:08:35.083Z,24.77
2023-12-19T20:10:36.937Z,24.58
2023-12-19T20:12:38.632Z,21.15
2023-12-19T20:14:40.372Z,24.35
2023-12-19T20:16:41.992Z,21.70
2023-12-19T20:18:43.632Z,23.27
2023-12-19T20:20:45.365Z,26.73
2023-12-19T20:22:49.215Z,33.75
2023-12-19T20:24:54.255Z,20.58
2023-12-19T20:26:55.975Z,19.02
2023-12-19T20:28:57.761Z,24.48
2023-12-19T20:30:59.590Z,46.28
2023-12-19T20:33:01.382Z,55.17
2023-12-19T20:35:04.145Z,49.45
2023-12-19T20:37:05.856Z,34.60
2023-12-19T20:39:07.468Z,42.10
2023-12-19T20:41:09.974Z,38.90
2023-12-19T20:43:11.855Z,29.52
2023-12-19T20:45:13.775Z,30.63
2023-12-19T20:47:16.110Z,30.98
2023-12-19T20:49:19.393Z,32.53
2023-12-19T20:51:21.102Z,31.13
2023-12-19T20:53:24.334Z,25.33
2023-12-19T20:55:26.318Z,26.40
2023-12-19T20:57:28.854Z,29.25
2023-12-19T20:59:37.183Z,26.75
2023-12-19T21:01:38.898Z,27.98
2023-12-19T21:03:40.646Z,22.08
2023-12-19T21:05:42.689Z,21.67
2023-12-19T21:07:46.393Z,20.48
2023-12-19T21:09:48.141Z,29.05
2023-12-19T21:11:49.833Z,31.60
2023-12-19T21:13:51.486Z,29.67
2023-12-19T21:15:53.229Z,21.40
2023-12-19T21:17:54.870Z,14.25
2023-12-19T21:19:56.515Z,13.80
2023-12-19T21:22:01.910Z,16.45
2023-12-19T21:24:04.056Z,18.77
2023-12-19T21:26:05.723Z,15.80
2023-12-19T21:28:08.242Z,13.55
2023-12-19T21:30:10.536Z,25.73
2023-12-19T21:32:12.211Z,29.80
2023-12-19T21:34:14.587Z,33.70
2023-12-19T21:36:16.740Z,41.42
2023-12-19T21:38:18.298Z,21.00
2023-12-19T21:40:20.305Z,17.50
2023-12-19T21:42:21.970Z,23.13
2023-12-19T21:44:23.541Z,26.77
2023-12-19T21:46:25.877Z,17.20
2023-12-19T21:48:27.730Z,12.88
2023-12-19T21:50:29.939Z,20.17
2023-12-19T21:52:31.607Z,18.77
2023-12-19T21:54:33.557Z,18.50
2023-12-19T21:56:39.101Z,18.00
2023-12-19T21:58:40.712Z,26.70
2023-12-19T22:00:42.508Z,20.52
2023-12-19T22:02:44.559Z,14.63
2023-12-19T22:04:46.512Z,19.80
2023-12-19T22:06:48.278Z,18.63
2023-12-19T22:08:50.856Z,25.40
2023-12-19T22:10:52.626Z,21.95
2023-12-19T22:12:54.300Z,16.67
2023-12-19T22:14:55.939Z,18.58
2023-12-19T22:16:57.490Z,24.42
2023-12-19T22:19:00.328Z,18.90
2023-12-19T22:21:02.313Z,24.65
2023-12-19T22:23:04.124Z,25.05
2023-12-19T22:25:05.899Z,24.60
2023-12-19T22:27:10.261Z,23.70
2023-12-19T22:29:11.863Z,16.52
2023-12-19T22:31:13.731Z,23.38
2023-12-19T22:33:15.421Z,19.13
2023-12-19T22:35:17.391Z,21.30
2023-12-19T22:37:19.313Z,18.80
2023-12-19T22:39:21.086Z,20.40
2023-12-19T22:41:22.719Z,23.13
2023-12-19T22:43:24.340Z,18.17
2023-12-19T22:45:26.010Z,19.58
2023-12-19T22:47:27.574Z,20.52
2023-12-19T22:49:32.747Z,25.50
2023-12-19T22:51:39.887Z,25.00
2023-12-19T22:53:41.480Z,23.25
2023-12-19T22:55:47.821Z,22.55
2023-12-19T22:57:49.824Z,22.45
2023-12-19T22:59:51.589Z,15.80
2023-12-19T23:01:54.642Z,16.48
2023-12-19T23:03:59.595Z,19.35
2023-12-19T23:06:01.381Z,18.15
2023-12-19T23:08:03.126Z,17.23
2023-12-19T23:10:05.133Z,20.52
2023-12-19T23:12:07.808Z,19.75
2023-12-19T23:14:09.845Z,18.75
2023-12-19T23:16:11.622Z,15.25
2023-12-19T23:18:13.240Z,16.50
2023-12-19T23:20:15.126Z,15.00
2023-12-19T23:22:16.770Z,14.68
2023-12-19T23:24:19.313Z,16.70
2023-12-19T23:26:21.605Z,17.15
2023-12-19T23:28:26.499Z,20.60
2023-12-19T23:30:29.214Z,23.92
2023-12-19T23:32:30.876Z,22.88
2023-12-19T23:34:32.503Z,18.35
2023-12-19T23:36:34.107Z,21.92
2023-12-19T23:38:35.689Z,27.40
2023-12-19T23:40:37.326Z,20.67
2023-12-19T23:42:39.090Z,21.00
2023-12-19T23:44:40.719Z,16.73
2023-12-19T23:46:43.072Z,19.23
2023-12-19T23:48:46.302Z,18.83
2023-12-19T23:50:47.959Z,18.65
2023-12-19T23:52:49.621Z,19.30
2023-12-19T23:54:51.265Z,24.08
2023-12-19T23:56:53.020Z,25.63
2023-12-19T23:58:54.684Z,20.23
